Date,TemperatureHighF,TemperatureAvgF,TemperatureLowF,DewpointHighF,DewpointAvgF,DewpointLowF,HumidityHigh,HumidityAvg,HumidityLow,PressureMaxIn,PressureMinIn,WindSpeedMaxMPH,WindSpeedAvgMPH,GustSpeedMaxMPH,PrecipitationSumIn
2013-1-1,75,60,48,59,52,44,92,76,53,30.17,29.95,10,1,15,0.00
2013-1-2,75,64,55,66,59,52,92,85,73,30.02,29.91,7,1,12,0.04
2013-1-3,63,57,50,60,55,48,93,91,89,30.19,30.00,4,0,10,0.12
2013-1-4,56,52,48,51,48,45,93,87,80,30.27,30.16,4,1,10,0.00
2013-1-5,64,53,42,52,46,38,88,78,64,30.30,30.19,6,0,8,0.00
2013-1-6,61,56,52,54,52,50,92,86,75,30.21,30.06,4,0,7,0.52
2013-1-7,63,54,46,52,48,42,93,82,66,30.25,30.12,7,1,16,0.00
2013-1-8,72,62,56,64,58,52,91,85,76,30.23,30.13,4,1,9,0.00
2013-1-9,77,68,62,70,64,60,94,89,77,30.30,30.18,6,0,10,0.00
2013-1-10,79,70,64,70,65,60,94,84,64,30.30,30.21,5,0,10,0.01
2013-1-11,82,69,60,68,61,57,93,77,47,30.22,30.09,8,0,14,0.00
2013-1-12,80,69,60,69,61,57,92,77,51,30.15,30.05,5,0,10,0.00
2013-1-13,80,68,59,67,60,56,93,77,50,30.12,30.01,5,0,7,0.00
2013-1-14,81,69,59,67,60,56,92,76,53,30.14,30.04,7,1,12,0.01
2013-1-15,80,69,60,67,62,57,93,78,57,30.10,29.99,7,0,12,0.00
2013-1-16,81,71,64,67,61,57,91,73,49,30.03,29.92,10,1,16,0.00
2013-1-17,75,60,44,65,52,33,91,77,55,30.09,29.86,13,2,25,0.00
2013-1-18,58,49,43,44,39,33,79,68,55,30.35,30.09,11,2,20,0.00
2013-1-19,65,54,46,54,48,39,88,78,66,30.31,30.14,7,1,13,0.00
2013-1-20,73,61,54,54,50,47,91,71,42,30.16,30.01,6,0,10,0.00
2013-1-21,69,58,50,50,47,42,89,68,45,30.07,29.96,5,0,9,0.00
2013-1-22,62,53,44,43,33,25,70,50,27,30.25,30.03,6,1,12,0.00
2013-1-23,63,49,37,38,32,26,75,56,32,30.36,30.21,6,0,10,0.00
2013-1-24,73,58,45,52,45,37,84,65,41,30.25,30.12,7,1,16,0.00
2013-1-25,74,62,52,56,50,45,89,68,38,30.27,30.10,8,1,13,0.00
2013-1-26,75,64,52,60,55,48,91,74,57,30.18,30.08,6,1,14,0.00
2013-1-27,68,62,58,58,55,52,86,77,61,30.32,30.16,8,2,18,0.00
2013-1-28,77,66,55,62,58,52,91,77,56,30.32,30.19,4,0,6,0.00
2013-1-29,80,68,58,67,61,55,92,79,55,30.21,30.04,7,0,10,0.00
2013-1-30,84,74,66,66,63,58,90,71,49,30.05,29.72,12,3,21,0.16
2013-1-31,60,52,43,53,33,24,87,51,27,30.20,29.83,8,1,16,0.04
2013-2-1,64,50,38,36,32,25,75,53,28,30.27,30.18,6,0,14,0.00
2013-2-2,67,49,35,36,28,19,67,46,25,30.30,30.10,4,0,6,0.00
2013-2-3,67,52,40,42,33,24,80,54,22,30.13,29.98,10,0,18,0.00
2013-2-4,64,53,40,45,38,31,86,59,33,30.07,29.98,3,0,5,0.00
2013-2-5,70,57,45,54,45,39,84,66,43,30.05,29.93,6,0,9,0.00
2013-2-6,70,63,58,59,55,52,89,76,63,30.09,29.99,4,0,6,0.02
2013-2-7,76,67,60,65,61,55,91,81,62,30.04,29.75,8,1,13,0.04
2013-2-8,70,62,55,64,54,49,87,77,59,30.04,29.77,8,1,14,0.00
2013-2-9,66,56,48,52,45,39,88,70,42,30.21,30.03,8,1,13,0.01
2013-2-10,74,62,49,58,52,42,91,73,51,30.25,30.10,6,0,12,0.00
2013-2-11,81,71,62,62,60,57,86,70,51,30.13,29.99,10,2,15,0.00
2013-2-12,82,71,63,67,63,58,92,77,50,30.02,29.80,10,2,20,0.00
2013-2-13,76,71,60,72,64,48,89,79,48,29.87,29.74,8,2,15,0.52
2013-2-14,60,53,48,55,48,44,89,84,79,30.03,29.85,4,0,10,0.14
2013-2-15,66,52,41,47,43,38,90,72,38,30.06,29.92,4,0,6,0.00
2013-2-16,58,48,39,46,40,24,89,76,50,30.09,29.86,9,1,20,0.03
2013-2-17,53,41,31,25,18,8,67,44,17,30.30,30.08,8,1,15,0.00
2013-2-18,62,46,29,42,32,23,84,60,35,30.36,30.17,5,0,9,0.00
2013-2-19,78,60,44,60,50,38,89,70,40,30.18,29.93,12,2,23,0.00
2013-2-20,69,57,46,56,38,24,86,52,26,30.13,30.00,5,1,10,0.00
2013-2-21,71,58,43,54,45,32,86,65,31,30.10,29.98,5,0,12,0.00
2013-2-22,83,71,60,67,62,54,91,77,51,30.02,29.93,5,0,9,0.00
2013-2-23,83,72,63,68,64,59,92,77,51,29.93,29.77,12,2,20,0.45
2013-2-24,76,66,60,62,56,35,93,73,27,29.94,29.79,4,0,10,0.13
2013-2-25,69,63,60,67,60,53,95,91,80,29.89,29.74,7,1,18,1.65
2013-2-26,79,70,61,71,62,51,95,78,38,29.77,29.60,12,3,23,0.45
2013-2-27,70,61,54,54,46,41,79,61,36,29.92,29.77,7,1,16,0.00
2013-2-28,71,59,47,46,41,32,85,55,33,29.92,29.78,8,1,18,0.00
2013-3-1,60,53,47,38,36,33,63,52,38,29.95,29.84,8,1,17,0.00
2013-3-2,55,46,39,36,32,27,80,58,36,29.97,29.86,12,1,20,0.00
2013-3-3,48,41,35,33,28,25,80,61,44,30.07,29.93,9,1,14,0.00
2013-3-4,64,47,32,40,29,19,81,54,26,30.16,30.04,6,0,12,0.00
2013-3-5,77,60,42,57,44,35,83,60,26,30.12,29.83,10,2,21,0.00
2013-3-6,66,52,44,60,35,24,84,53,27,30.08,29.80,9,2,20,0.06
2013-3-7,65,50,37,40,34,30,77,57,30,30.18,30.07,6,0,10,0.00
2013-3-8,70,53,40,49,41,35,88,67,30,30.18,30.09,6,0,13,0.00
2013-3-9,69,54,42,49,44,38,90,71,44,30.22,30.12,6,0,12,0.00
2013-3-10,76,62,49,58,51,45,91,70,45,30.17,30.06,6,0,15,0.00
2013-3-11,78,66,54,59,55,51,90,70,50,30.08,29.83,6,0,12,0.00
2013-3-12,70,65,53,65,57,45,91,77,50,29.97,29.77,6,1,12,0.07
2013-3-13,70,58,47,45,36,27,78,48,22,30.13,29.96,8,1,16,0.00
2013-3-14,62,51,41,37,30,24,67,45,27,30.25,30.11,8,1,13,0.00
2013-3-15,74,55,38,42,35,25,83,53,24,30.23,30.04,6,0,12,0.00
2013-3-16,80,63,46,52,45,38,87,54,28,30.10,29.92,8,1,15,0.00
2013-3-17,78,65,51,53,46,39,86,53,27,30.06,29.91,7,1,13,0.00
2013-3-18,81,70,62,62,58,51,85,68,51,29.99,29.79,8,1,16,0.00
2013-3-19,80,70,62,63,58,54,87,67,45,29.97,29.82,8,1,13,0.02
2013-3-20,67,60,53,55,52,48,87,73,56,29.97,29.78,8,1,14,0.23
2013-3-21,68,54,41,49,36,24,89,57,20,29.90,29.79,8,1,14,0.04
2013-3-22,67,55,47,47,39,31,76,55,34,30.01,29.88,7,1,12,0.00
2013-3-23,67,60,53,64,56,47,94,87,73,29.94,29.72,6,0,12,2.02
2013-3-24,85,73,62,73,66,60,95,81,49,29.75,29.47,10,2,18,0.31
2013-3-25,69,59,49,60,37,23,81,47,21,29.97,29.56,8,2,18,0.00
2013-3-26,57,48,40,32,27,22,63,44,28,30.19,29.97,9,1,21,0.00
2013-3-27,61,48,37,35,30,26,73,53,28,30.25,30.15,7,1,12,0.00
2013-3-28,69,53,39,42,33,24,82,52,21,30.25,30.14,10,0,20,0.00
2013-3-29,73,57,42,45,39,30,87,56,23,30.27,30.13,5,0,9,0.00
2013-3-30,78,62,46,48,42,35,87,54,24,30.21,30.03,8,1,14,0.00
2013-3-31,82,68,55,56,50,43,78,55,38,30.07,29.90,9,1,16,0.00
2013-4-1,83,71,62,64,60,56,87,69,46,29.93,29.82,11,1,17,0.00
2013-4-2,78,67,55,59,50,41,87,58,28,30.05,29.92,5,0,12,0.00
2013-4-3,80,65,54,63,57,49,92,76,47,30.04,29.97,7,0,14,0.30
2013-4-4,78,71,64,71,65,61,94,82,66,30.00,29.78,11,1,20,0.08
2013-4-5,68,60,55,63,56,51,92,88,81,29.98,29.75,6,0,14,0.36
2013-4-6,71,60,49,56,51,46,90,74,47,30.13,29.97,8,1,14,0.00
2013-4-7,80,67,56,63,56,53,92,71,49,30.14,30.04,5,0,12,0.00
2013-4-8,83,69,56,64,58,52,91,69,42,30.10,30.01,4,0,12,0.00
2013-4-9,83,72,61,66,61,57,90,71,51,30.14,30.03,5,0,13,0.00
2013-4-10,84,72,59,67,62,55,91,72,54,30.09,29.94,4,0,12,0.00
2013-4-11,87,76,69,73,69,64,90,79,55,29.94,29.74,6,0,12,0.59
2013-4-12,88,78,73,74,69,64,92,76,49,29.82,29.69,13,2,22,0.02
2013-4-13,83,72,63,66,53,43,84,53,26,29.95,29.81,5,0,10,0.00
2013-4-14,75,66,62,65,60,55,92,82,59,29.97,29.80,5,0,13,0.78
2013-4-15,85,72,63,68,64,61,94,78,50,30.06,29.77,6,1,12,0.00
2013-4-16,83,73,67,70,65,62,91,78,58,30.13,30.03,8,1,13,0.00
2013-4-17,79,71,64,70,64,60,91,79,64,30.13,30.04,5,0,12,0.00
2013-4-18,86,75,65,70,65,62,92,73,50,30.04,29.91,4,0,10,0.00
2013-4-19,89,79,66,72,69,61,88,73,47,29.95,29.80,9,2,17,0.04
2013-4-20,66,56,50,60,52,48,92,85,73,30.14,29.93,6,1,14,0.62
2013-4-21,71,62,53,61,56,48,90,82,68,30.15,30.05,10,2,17,0.02
2013-4-22,65,63,60,62,58,53,93,86,70,30.10,30.00,9,2,16,0.45
2013-4-23,73,64,56,60,55,52,91,75,55,30.11,30.01,6,1,12,0.00
2013-4-24,84,68,54,64,57,50,92,69,40,30.10,30.01,3,0,9,0.00
2013-4-25,86,73,61,67,62,57,91,69,44,30.14,30.04,5,0,10,0.00
2013-4-26,80,71,63,67,61,54,82,70,56,30.24,30.10,9,1,16,0.00
2013-4-27,82,71,60,63,59,55,90,68,42,30.21,30.10,7,1,13,0.00
2013-4-28,83,73,66,68,64,61,90,73,52,30.12,29.94,3,0,10,0.00
2013-4-29,84,73,66,67,64,61,89,74,54,29.97,29.86,7,0,14,0.17
2013-4-30,85,72,64,68,64,61,92,77,49,29.98,29.89,5,0,12,0.01
2013-5-1,77,70,66,68,64,61,91,82,71,30.01,29.92,10,2,16,0.00
2013-5-2,72,70,68,70,68,63,94,91,83,29.98,29.85,7,1,15,2.05
2013-5-3,72,69,68,69,66,59,95,89,70,29.86,29.78,10,2,21,1.52
2013-5-4,71,69,66,69,66,60,94,90,71,29.78,29.65,6,2,18,1.10
2013-5-5,78,69,62,70,58,48,98,71,36,29.83,29.66,6,1,14,0.14
2013-5-6,74,65,55,56,50,44,82,60,38,29.93,29.80,7,1,13,0.00
2013-5-7,78,67,55,61,54,50,87,67,41,29.96,29.85,11,1,17,0.00
2013-5-8,81,70,58,61,56,53,90,64,40,30.04,29.93,7,0,16,0.00
2013-5-9,86,73,63,66,60,55,91,66,38,30.07,30.00,4,0,10,0.00
2013-5-10,88,75,62,67,62,57,89,65,38,30.07,29.93,4,0,9,0.00
2013-5-11,90,75,67,73,66,63,89,76,47,29.99,29.87,10,1,18,0.12
2013-5-12,85,75,67,69,64,57,92,72,47,29.97,29.87,8,1,15,0.01
2013-5-13,79,70,61,58,46,38,73,46,24,30.09,29.94,6,1,13,0.00
2013-5-14,81,67,52,51,44,34,78,47,20,30.19,30.09,4,0,8,0.00
2013-5-15,86,71,56,61,54,49,89,59,30,30.18,30.01,5,0,10,0.00
2013-5-16,86,75,63,67,61,57,84,63,39,30.07,29.95,6,0,12,0.00
2013-5-17,89,76,65,67,63,51,88,67,32,30.05,29.98,7,0,12,0.00
2013-5-18,90,78,69,72,68,62,89,72,41,30.07,29.95,6,0,10,0.31
2013-5-19,86,77,70,74,69,66,92,79,60,30.05,29.93,3,0,12,0.17
2013-5-20,84,76,70,74,69,66,92,81,64,30.04,29.95,4,0,9,0.17
2013-5-21,86,75,69,74,69,66,91,81,58,29.99,29.88,6,0,16,0.10
2013-5-22,85,76,68,73,69,64,92,78,57,29.94,29.85,5,0,12,0.00
2013-5-23,90,80,70,71,67,63,91,69,42,29.92,29.83,6,0,12,0.06
2013-5-24,89,79,71,69,62,50,90,59,28,30.05,29.88,6,1,13,0.00
2013-5-25,82,73,64,60,55,51,83,56,36,30.19,30.04,6,1,12,0.00
2013-5-26,86,73,61,62,55,49,88,57,30,30.18,30.09,6,0,12,0.00
2013-5-27,86,74,62,66,61,56,89,66,47,30.15,30.07,5,0,13,0.00
2013-5-28,86,76,67,68,65,61,86,69,53,30.12,30.06,7,0,14,0.00
2013-5-29,88,79,71,73,70,66,89,74,57,30.10,30.03,8,1,14,0.00
2013-5-30,87,79,74,74,71,69,89,76,56,30.12,30.03,6,0,14,0.06
2013-5-31,87,79,72,73,70,68,91,74,55,30.09,30.02,5,0,14,0.00
2013-6-1,88,80,73,72,70,67,89,73,54,30.04,29.96,7,0,15,0.06
2013-6-2,89,81,75,79,74,71,92,79,63,30.00,29.82,5,0,13,0.66
2013-6-3,92,80,74,77,72,70,91,80,53,29.90,29.79,6,0,12,0.11
2013-6-4,89,79,73,77,72,70,91,80,60,29.95,29.86,5,0,10,0.06
2013-6-5,85,77,74,74,71,69,90,82,60,29.95,29.87,5,0,12,0.15
2013-6-6,79,75,72,77,73,70,93,92,89,29.88,29.47,7,0,16,1.61
2013-6-7,89,80,72,75,72,68,94,77,53,29.85,29.51,9,2,20,0.25
2013-6-8,92,81,73,76,71,66,90,72,46,30.01,29.85,6,0,10,0.00
2013-6-9,92,80,74,80,73,70,89,80,55,30.06,29.97,4,0,13,0.22
2013-6-10,92,82,75,75,73,71,92,76,51,30.04,29.93,4,0,10,0.00
2013-6-11,92,83,75,75,72,70,89,72,51,30.02,29.92,7,0,12,0.00
2013-6-12,96,85,74,76,72,67,90,67,40,30.00,29.89,5,0,10,0.00
2013-6-13,96,84,78,79,75,71,88,74,47,29.93,29.78,7,1,13,0.19
2013-6-14,93,80,72,78,74,68,92,81,57,29.88,29.72,9,1,20,2.13
2013-6-15,88,80,73,74,70,66,94,74,52,30.03,29.87,4,0,12,0.00
2013-6-16,89,81,72,73,70,68,87,71,54,30.07,29.98,5,0,13,0.00
2013-6-17,94,84,77,78,74,72,88,74,52,30.02,29.88,4,0,9,0.00
2013-6-18,94,83,73,75,71,68,89,68,45,29.97,29.84,7,1,15,0.00
2013-6-19,92,83,75,76,72,68,89,70,47,29.97,29.85,6,0,10,0.00
2013-6-20,90,80,74,75,72,68,88,76,60,30.04,29.92,7,0,14,0.00
2013-6-21,88,78,75,75,73,70,90,83,57,30.06,29.98,7,0,12,1.01
2013-6-22,85,78,74,79,73,72,92,87,70,30.07,30.01,4,0,7,0.79
2013-6-23,91,81,73,76,72,68,92,76,51,30.10,30.02,4,0,10,0.01
2013-6-24,91,82,75,76,73,68,90,74,51,30.14,30.03,4,0,12,0.00
2013-6-25,93,82,75,76,72,64,89,73,41,30.11,29.98,5,0,12,0.00
2013-6-26,91,80,75,76,73,70,89,79,54,30.03,29.93,4,0,9,0.63
2013-6-27,93,82,72,79,72,68,90,74,50,29.96,29.81,6,0,12,0.00
2013-6-28,91,80,77,77,73,70,87,79,57,29.87,29.72,10,1,18,0.01
2013-6-29,88,80,77,77,73,71,89,79,62,29.76,29.68,10,1,20,0.03
2013-6-30,90,80,76,76,74,71,90,82,61,29.79,29.71,7,0,13,0.03
2013-7-1,85,77,74,75,72,70,91,85,70,29.95,29.77,7,1,15,0.65
2013-7-2,90,78,74,76,73,71,93,86,61,30.04,29.92,5,0,10,0.26
2013-7-3,91,80,73,78,74,70,93,84,57,30.07,30.01,5,0,12,0.04
2013-7-4,91,81,74,77,73,69,90,79,59,30.12,30.03,8,0,15,0.44
2013-7-5,91,82,74,78,73,70,93,78,57,30.10,30.04,4,0,13,0.00
2013-7-6,91,83,76,76,74,72,90,75,56,30.08,30.00,3,0,12,0.00
2013-7-7,91,82,76,76,73,71,89,74,56,30.09,30.01,4,0,9,0.00
2013-7-8,92,83,75,76,73,70,91,74,55,30.12,30.03,5,0,10,0.00
2013-7-9,92,83,76,76,72,69,90,71,48,30.12,30.01,4,0,12,0.00
2013-7-10,92,82,74,75,72,68,90,71,47,30.05,29.89,4,0,12,0.00
2013-7-11,93,82,76,75,73,70,88,75,50,29.96,29.80,6,0,12,0.20
2013-7-12,88,78,74,77,73,70,92,84,64,29.88,29.82,7,0,14,0.99
2013-7-13,89,77,72,76,72,70,92,86,62,29.94,29.83,4,0,10,1.45
2013-7-14,87,78,72,76,72,70,93,83,67,30.06,29.92,3,0,10,0.00
2013-7-15,86,80,74,80,74,70,91,83,68,30.11,30.03,6,0,16,0.72
2013-7-16,89,81,75,79,74,72,93,80,64,30.14,30.08,6,0,15,0.35
2013-7-17,90,82,75,77,73,69,92,74,54,30.14,30.03,4,0,10,0.00
2013-7-18,91,82,74,76,72,70,91,75,54,30.07,29.98,5,0,12,0.00
2013-7-19,90,79,74,77,72,71,90,81,58,30.06,29.98,6,0,13,0.27
2013-7-20,90,78,73,76,72,70,91,85,60,30.03,29.95,6,0,12,0.24
2013-7-21,92,80,73,76,73,70,92,80,55,30.04,29.95,11,0,18,0.03
2013-7-22,92,79,76,76,74,71,92,85,54,30.06,29.95,13,1,23,0.46
2013-7-23,91,79,74,77,74,71,91,83,61,29.97,29.84,10,1,21,0.00
2013-7-24,87,79,74,76,73,69,92,82,67,29.86,29.75,8,1,15,0.17
2013-7-25,91,81,74,76,73,70,90,76,57,29.89,29.76,7,0,13,0.00
2013-7-26,92,83,76,77,74,72,91,76,55,29.95,29.87,3,0,9,0.00
2013-7-27,91,81,76,78,74,69,90,80,62,29.94,29.81,12,0,22,0.86
2013-7-28,90,79,74,75,73,69,92,82,52,29.99,29.85,5,0,12,0.42
2013-7-29,93,82,72,77,73,70,92,76,54,30.08,29.96,3,0,7,0.00
2013-7-30,92,81,77,79,75,72,89,81,55,30.11,30.02,4,0,10,0.10
2013-7-31,90,79,75,78,74,72,92,85,64,30.07,29.98,4,0,9,0.13
2013-8-1,91,79,73,78,73,71,92,82,58,29.98,29.87,6,0,10,0.00
2013-8-2,93,82,73,77,73,70,91,75,51,29.97,29.87,4,0,9,0.00
2013-8-3,90,82,75,80,75,72,91,80,62,29.99,29.91,5,0,9,0.24
2013-8-4,94,84,77,79,75,70,92,75,48,29.98,29.86,6,0,10,0.00
2013-8-5,95,85,79,78,76,72,90,74,48,29.93,29.83,6,0,14,0.00
2013-8-6,92,84,79,78,76,74,89,78,59,29.93,29.84,5,0,12,0.00
2013-8-7,90,84,79,78,75,74,89,77,60,29.95,29.87,6,0,12,0.00
2013-8-8,90,83,78,80,76,72,91,79,57,30.00,29.89,4,0,9,0.31
2013-8-9,92,83,77,78,74,70,91,77,56,30.03,29.92,6,0,13,0.00
2013-8-10,95,84,76,77,74,69,90,75,45,30.08,30.00,6,0,12,0.00
2013-8-11,95,85,77,78,74,68,89,72,46,30.10,30.00,4,0,7,0.00
2013-8-12,94,84,77,81,75,72,88,75,53,30.07,29.92,4,0,9,0.15
2013-8-13,95,84,75,77,73,67,92,72,41,29.97,29.83,5,0,12,0.01
2013-8-14,95,84,76,76,74,71,89,73,48,29.93,29.80,6,0,14,0.53
2013-8-15,94,80,75,78,73,71,92,80,51,29.97,29.84,12,0,20,0.62
2013-8-16,90,79,74,78,74,71,93,84,60,30.00,29.89,6,0,12,0.04
2013-8-17,89,81,76,78,75,72,91,82,65,30.06,29.94,3,0,7,0.21
2013-8-18,93,82,75,81,75,72,93,80,60,30.06,29.97,4,0,10,0.01
2013-8-19,92,84,78,78,76,74,91,76,57,30.04,29.91,4,0,9,0.00
2013-8-20,93,84,76,79,74,71,91,75,54,30.07,29.95,6,0,13,0.00
2013-8-21,90,82,78,78,75,72,91,81,63,30.11,30.02,4,0,14,0.05
2013-8-22,81,78,75,77,74,72,92,88,86,30.10,29.96,4,0,10,0.44
2013-8-23,89,79,75,79,74,71,93,85,64,29.98,29.93,5,0,12,0.01
2013-8-24,85,79,74,78,74,72,93,84,71,30.08,29.95,4,0,12,0.01
2013-8-25,86,78,74,76,73,70,91,84,69,30.14,30.06,9,1,18,0.00
2013-8-26,87,79,73,77,72,70,93,80,64,30.13,30.01,5,0,14,0.01
2013-8-27,89,80,74,74,70,66,89,72,51,30.04,29.95,5,0,12,0.00
2013-8-28,91,80,72,72,69,66,90,70,50,30.00,29.90,4,0,7,0.01
2013-8-29,93,82,72,74,69,65,87,65,43,29.96,29.84,6,0,14,0.00
2013-8-30,95,83,76,76,72,68,89,72,44,29.90,29.79,5,0,12,0.00
2013-8-31,92,80,74,78,72,70,91,78,60,29.90,29.80,4,0,7,0.00
2013-9-1,93,82,74,76,72,70,90,75,51,29.91,29.81,7,0,12,0.00
2013-9-2,92,82,74,80,73,70,89,74,53,29.93,29.81,7,0,12,0.02
2013-9-3,93,84,75,76,74,72,90,71,54,29.93,29.83,6,0,15,0.01
2013-9-4,94,82,75,76,73,70,89,75,51,30.01,29.91,5,0,13,0.23
2013-9-5,95,81,74,77,74,70,92,81,46,30.03,29.93,6,0,14,0.03
2013-9-6,90,78,74,76,73,71,91,85,62,30.00,29.92,7,0,15,0.01
2013-9-7,89,80,71,77,71,68,94,77,52,29.97,29.89,5,0,10,0.00
2013-9-8,90,80,72,73,68,62,91,70,40,29.93,29.85,4,0,12,0.01
2013-9-9,90,80,72,73,69,67,90,71,47,30.01,29.90,7,0,12,0.00
2013-9-10,90,81,73,72,70,67,89,70,50,30.08,29.98,8,1,17,0.00
2013-9-11,90,81,73,76,71,68,90,74,51,30.06,29.97,6,0,13,0.00
2013-9-12,89,80,73,77,72,70,90,77,57,29.99,29.83,4,0,10,0.11
2013-9-13,93,82,72,74,70,65,90,70,42,29.85,29.71,4,0,9,0.00
2013-9-14,92,81,74,76,72,68,89,76,48,29.93,29.75,6,0,14,0.06
2013-9-15,93,82,74,76,73,70,92,75,52,30.03,29.92,4,0,10,0.01
2013-9-16,91,82,75,79,74,71,91,77,56,30.03,29.93,4,0,12,0.04
2013-9-17,87,79,75,76,73,71,91,81,62,30.04,29.94,5,0,12,0.37
2013-9-18,85,77,74,77,72,68,94,85,67,30.06,29.97,7,1,20,4.74
2013-9-19,85,76,72,78,72,69,92,86,71,30.04,29.96,5,0,14,0.65
2013-9-20,86,77,71,73,69,67,92,78,57,30.00,29.87,4,0,12,0.00
2013-9-21,87,78,69,73,69,65,91,75,58,29.89,29.69,4,0,7,0.00
2013-9-22,84,77,74,74,72,70,90,83,72,29.78,29.67,8,0,12,0.13
2013-9-23,83,77,73,76,73,70,92,87,78,29.89,29.77,3,0,4,0.03
2013-9-24,85,78,75,78,74,72,93,87,73,29.89,29.76,3,0,9,0.59
2013-9-25,85,79,76,76,74,72,93,85,71,29.77,29.68,6,0,12,0.01
2013-9-26,78,76,71,75,71,67,92,86,78,29.85,29.67,4,0,10,0.01
2013-9-27,80,73,67,71,67,64,90,81,68,29.95,29.82,5,1,13,0.00
2013-9-28,77,73,70,70,67,62,92,82,63,30.01,29.91,6,1,14,0.07
2013-9-29,83,73,67,70,66,64,91,79,64,29.97,29.89,6,1,13,0.00
2013-9-30,82,73,67,70,64,62,91,75,56,29.98,29.88,6,0,14,0.00
2013-10-1,82,74,69,67,64,62,85,72,57,30.04,29.96,4,0,10,0.00
2013-10-2,83,73,64,67,64,60,90,75,57,30.05,29.99,5,0,12,0.00
2013-10-3,85,75,67,73,69,63,92,81,66,30.04,29.96,6,0,10,0.00
2013-10-4,88,78,71,75,71,67,92,80,57,30.04,29.96,5,0,12,0.00
2013-10-5,86,77,70,75,70,67,92,80,63,30.02,29.94,5,0,12,0.00
2013-10-6,87,78,71,77,72,67,92,82,66,29.95,29.80,4,0,10,0.01
2013-10-7,87,78,73,75,72,70,91,81,57,29.81,29.68,5,0,12,0.00
2013-10-8,81,74,67,76,71,64,93,90,82,29.96,29.72,8,1,16,0.24
2013-10-9,74,66,62,66,62,60,94,86,73,30.04,29.94,5,0,12,0.01
2013-10-10,83,71,62,65,61,57,92,73,44,30.02,29.91,5,0,10,0.01
2013-10-11,84,72,63,65,60,58,91,70,43,29.99,29.87,4,0,7,0.00
2013-10-12,85,73,62,64,60,56,91,68,39,29.98,29.90,6,0,12,0.00
2013-10-13,86,72,62,68,62,58,90,74,41,30.04,29.95,4,0,10,0.00
2013-10-14,78,71,66,68,65,63,91,82,69,30.02,29.94,6,1,12,0.00
2013-10-15,73,70,68,70,67,65,93,90,86,29.97,29.90,5,1,12,0.10
2013-10-16,83,73,66,70,66,63,90,80,64,29.93,29.86,3,0,7,0.00
2013-10-17,88,76,66,71,67,62,92,75,53,29.92,29.83,4,0,9,0.00
2013-10-18,88,77,69,72,69,65,90,75,49,29.93,29.83,4,0,9,0.00
2013-10-19,87,78,72,73,70,68,90,77,59,29.89,29.78,4,0,7,0.00
2013-10-20,80,73,67,70,64,60,86,74,53,29.94,29.83,4,0,9,0.00
2013-10-21,82,74,69,73,69,64,89,83,74,29.97,29.89,4,0,10,0.00
2013-10-22,80,74,70,74,70,67,92,88,79,29.92,29.75,4,0,7,0.12
2013-10-23,76,68,57,68,57,47,93,71,38,29.98,29.76,6,0,14,0.10
2013-10-24,70,60,51,50,46,40,79,61,38,30.13,29.98,4,0,9,0.00
2013-10-25,74,61,50,52,48,42,89,65,40,30.21,30.10,3,0,12,0.00
2013-10-26,72,59,49,56,49,44,84,71,50,30.20,30.07,2,0,6,0.00
2013-10-27,74,60,48,53,47,39,90,65,31,30.11,30.02,3,0,6,0.00
2013-10-28,79,64,53,60,54,48,90,70,51,30.17,30.06,5,0,12,0.00
2013-10-29,78,67,58,66,58,53,92,75,54,30.23,30.14,5,0,12,0.00
2013-10-30,79,68,60,66,61,56,91,77,61,30.22,30.10,6,0,12,0.00
2013-10-31,85,73,64,70,65,59,91,76,52,30.11,29.92,5,0,7,0.01
2013-11-1,83,75,69,71,67,65,89,77,59,29.94,29.75,8,1,15,0.00
2013-11-2,76,68,58,71,62,52,92,81,55,29.91,29.72,6,0,17,1.47
2013-11-3,71,60,52,53,49,42,87,69,38,30.15,29.90,7,1,16,0.00
2013-11-4,73,62,53,62,55,47,90,79,64,30.22,30.13,11,1,20,0.11
2013-11-5,71,66,62,66,63,59,94,90,78,30.22,30.13,8,1,18,0.10
2013-11-6,81,72,67,71,68,65,94,88,70,30.13,30.02,4,0,12,0.06
2013-11-7,80,72,69,69,66,63,93,82,57,30.02,29.91,4,0,9,0.00
2013-11-8,69,60,51,63,48,43,81,67,55,30.16,29.97,9,1,17,0.00
2013-11-9,75,62,51,61,55,47,90,79,61,30.19,30.11,5,0,13,0.00
2013-11-10,77,66,59,67,59,54,94,80,60,30.17,30.06,5,0,10,0.00
2013-11-11,76,65,55,62,58,52,90,79,57,30.15,30.06,4,0,6,0.00
2013-11-12,75,67,60,63,58,46,92,75,50,30.10,29.97,6,0,16,0.00
2013-11-13,60,49,42,47,37,31,72,63,55,30.38,30.10,9,2,21,0.00
2013-11-14,66,53,40,56,46,32,89,78,65,30.33,30.17,7,1,14,0.00
2013-11-15,67,62,56,64,59,53,93,90,87,30.18,30.00,3,0,5,0.06
2013-11-16,78,69,59,70,64,57,94,85,68,30.13,30.03,6,0,13,0.01
2013-11-17,81,73,68,74,68,65,93,85,74,30.06,29.93,3,0,6,0.25
2013-11-18,80,73,69,74,70,66,92,88,79,29.97,29.83,4,0,9,0.30
2013-11-19,73,63,55,71,54,43,93,73,60,30.00,29.86,8,1,17,0.00
2013-11-20,70,64,61,63,60,55,93,84,78,30.13,29.97,9,2,16,0.04
2013-11-21,77,68,65,69,64,62,94,88,75,30.20,30.11,5,1,12,0.00
2013-11-22,81,71,65,71,65,60,94,82,63,30.20,30.08,8,0,13,0.00
2013-11-23,82,69,60,68,62,57,92,78,49,30.08,29.94,5,0,10,0.00
2013-11-24,65,57,51,59,46,37,82,68,50,30.30,30.02,8,2,20,0.00
2013-11-25,68,56,43,59,50,37,89,79,69,30.28,30.05,7,1,14,0.00
2013-11-26,78,70,62,75,67,58,94,91,89,30.05,29.64,4,0,10,1.20
2013-11-27,73,56,39,71,50,33,93,81,66,30.17,29.56,12,1,22,0.13
2013-11-28,57,44,32,43,35,26,80,72,59,30.36,30.17,6,1,12,0.00
2013-11-29,65,52,42,50,43,36,83,72,52,30.38,30.30,4,1,9,0.00
2013-11-30,62,56,54,55,51,47,89,84,76,30.34,30.18,6,1,12,0.00
2013-12-1,71,60,52,60,54,48,86,80,66,30.18,29.93,2,0,6,0.00
2013-12-2,70,60,54,56,53,49,91,79,57,29.93,29.77,5,0,10,0.00
2013-12-3,74,61,50,61,54,47,91,78,60,29.92,29.82,3,0,5,0.00
2013-12-4,78,67,57,67,60,53,92,81,61,30.04,29.89,5,0,7,0.00
2013-12-5,83,70,59,68,62,55,92,78,54,30.11,30.01,4,0,9,0.00
2013-12-6,83,72,63,70,64,59,92,77,57,30.10,30.03,6,0,12,0.01
2013-12-7,84,73,65,71,66,61,92,79,56,30.16,30.07,5,0,12,0.00
2013-12-8,70,66,64,65,63,61,92,88,83,30.20,30.09,5,0,12,0.00
2013-12-9,84,72,64,72,65,62,94,80,56,30.13,30.00,8,1,16,0.00
2013-12-10,79,68,54,71,63,44,91,83,67,30.21,29.97,7,1,15,0.25
2013-12-11,66,57,48,58,50,41,83,78,73,30.25,30.17,5,1,10,0.01
2013-12-12,64,56,46,50,37,23,79,54,22,30.32,30.19,6,0,12,0.00
2013-12-13,66,54,43,55,46,38,86,77,64,30.29,30.07,4,0,10,0.00
2013-12-14,77,66,54,68,61,50,93,86,72,30.08,29.82,8,1,15,0.66
2013-12-15,69,60,48,66,56,42,93,86,75,30.11,29.79,7,0,14,0.28
2013-12-16,59,48,38,42,39,34,86,72,48,30.21,30.09,5,0,10,0.00
2013-12-17,67,51,39,42,38,35,90,66,31,30.23,30.11,4,0,10,0.00
2013-12-18,63,51,43,40,35,23,82,59,24,30.25,30.14,5,0,13,0.00
2013-12-19,71,54,39,56,46,35,90,75,57,30.26,30.14,3,0,10,0.00
2013-12-20,76,61,48,61,53,44,92,77,59,30.17,30.07,4,0,9,0.00
2013-12-21,83,70,58,68,61,54,93,77,51,30.09,29.96,5,1,12,0.00
2013-12-22,84,75,68,72,68,65,93,80,59,30.07,30.00,8,1,16,0.00
2013-12-23,83,74,62,70,67,58,92,80,62,30.08,29.98,7,1,17,0.00
2013-12-24,62,55,44,58,42,31,88,65,35,30.26,30.06,7,1,18,0.01
2013-12-25,60,49,39,52,43,30,86,79,62,30.26,30.18,6,1,15,0.00
2013-12-26,57,53,49,50,47,44,86,81,74,30.23,30.12,4,0,10,0.00
2013-12-27,59,55,51,53,50,46,88,83,74,30.27,30.17,4,1,10,0.00
2013-12-28,68,63,57,65,58,48,92,85,74,30.23,29.92,3,0,9,0.01
2013-12-29,73,69,59,70,65,55,94,87,76,29.96,29.83,9,1,14,1.08
2013-12-30,66,57,48,55,48,45,90,74,51,30.15,29.95,5,0,12,0.00
2013-12-31,62,57,54,51,49,46,84,74,59,30.27,30.13,4,0,9,0.00
2014-1-1,62,57,52,60,53,47,94,88,79,30.26,30.03,3,0,5,0.53
2014-1-2,68,63,52,66,61,48,97,94,87,30.03,29.70,9,1,20,1.01